Time;durP1;ratioP1;P1;durP2;ratioP2;P2;SDS_P1;SDS_P2;PMS_P1;PMS_P2;Temp;Humidity;BMP_temperature;BMP_pressure;BME280_temperature;BME280_humidity;BME280_pressure;Samples;Min_cycle;Max_cycle;Signal;HPM_P1;HPM_P2
2022/02/21 00:02:05;;;;;;;6.13;3.25;;;-5.30;99.90;;;;;;4935871;29;20472;-73
2022/02/21 00:04:31;;;;;;;7.15;3.70;;;-5.30;99.90;;;;;;4935985;29;20031;-73
2022/02/21 00:06:57;;;;;;;8.55;3.15;;;-5.30;99.90;;;;;;4935735;29;20038;-73
2022/02/21 00:09:22;;;;;;;7.72;3.72;;;-5.30;99.90;;;;;;4935983;29;20024;-73
2022/02/21 00:11:48;;;;;;;12.07;3.65;;;-5.30;99.90;;;;;;4935759;29;20028;-72
2022/02/21 00:14:14;;;;;;;13.73;3.60;;;-5.30;99.90;;;;;;4934526;29;20035;-72
2022/02/21 00:16:39;;;;;;;12.90;3.83;;;-5.30;99.90;;;;;;4935886;29;20028;-72
2022/02/21 00:19:05;;;;;;;6.85;3.17;;;-5.50;99.90;;;;;;4935563;29;20032;-72
2022/02/21 00:21:31;;;;;;;6.90;3.13;;;-5.50;99.90;;;;;;4935664;29;20423;-72
2022/02/21 00:23:57;;;;;;;7.50;3.95;;;-5.50;99.90;;;;;;4935787;29;20032;-72
2022/02/21 00:26:22;;;;;;;13.13;3.83;;;-5.50;99.90;;;;;;4935519;29;20393;-72
2022/02/21 00:28:49;;;;;;;7.35;3.65;;;-5.50;99.90;;;;;;4935371;29;20031;-71
2022/02/21 00:31:15;;;;;;;12.77;4.57;;;-5.60;99.90;;;;;;4935576;29;20035;-71
2022/02/21 00:33:41;;;;;;;11.13;4.57;;;-5.60;99.90;;;;;;4935425;29;20059;-72
2022/02/21 00:36:06;;;;;;;10.85;4.90;;;-5.50;99.90;;;;;;4935137;29;20051;-71
2022/02/21 00:38:33;;;;;;;10.68;3.97;;;-5.40;99.90;;;;;;4935188;29;20443;-71
2022/02/21 00:40:59;;;;;;;7.03;4.00;;;-5.40;99.90;;;;;;4935294;29;20048;-71
2022/02/21 00:43:25;;;;;;;6.80;3.75;;;-5.40;99.90;;;;;;4934059;29;20070;-71
2022/02/21 00:45:51;;;;;;;8.23;4.43;;;-5.50;99.90;;;;;;4935356;29;20036;-72
2022/02/21 00:48:17;;;;;;;12.75;4.80;;;-5.50;99.90;;;;;;4935400;29;20031;-72
2022/02/21 00:50:43;;;;;;;14.57;4.18;;;-5.50;99.90;;;;;;4933930;29;20034;-72
2022/02/21 00:53:09;;;;;;;15.40;4.88;;;-5.40;99.90;;;;;;4935063;29;20043;-72
2022/02/21 00:55:35;;;;;;;9.60;3.80;;;-5.40;99.90;;;;;;4935175;29;20035;-73
2022/02/21 00:58:02;;;;;;;10.35;4.43;;;-5.40;99.90;;;;;;4934769;29;20043;-73
2022/02/21 01:00:27;;;;;;;14.57;4.18;;;-5.50;99.90;;;;;;4935389;29;20087;-73
2022/02/21 01:02:54;;;;;;;10.00;4.18;;;-5.50;99.90;;;;;;4934938;29;20028;-73
2022/02/21 01:05:20;;;;;;;8.77;3.97;;;-5.50;99.90;;;;;;4935305;29;20436;-73
2022/02/21 01:07:45;;;;;;;11.57;4.10;;;-5.50;99.90;;;;;;4935115;29;20110;-73
2022/02/21 01:10:11;;;;;;;12.25;4.15;;;-5.60;99.90;;;;;;4934934;29;20024;-72
2022/02/21 01:12:37;;;;;;;11.77;3.75;;;-5.60;99.90;;;;;;4934949;29;20031;-73
2022/02/21 01:15:05;;;;;;;11.73;4.00;;;-5.70;99.90;;;;;;4934842;29;20027;-73
2022/02/21 01:17:31;;;;;;;9.32;3.45;;;-5.70;99.90;;;;;;4934780;29;20048;-73
2022/02/21 01:19:58;;;;;;;12.75;3.95;;;-5.70;99.90;;;;;;4931645;29;20460;-71
2022/02/21 01:22:24;;;;;;;12.55;3.88;;;-5.60;99.90;;;;;;4916273;29;20067;-72
2022/02/21 01:24:50;;;;;;;8.52;4.18;;;-5.60;99.90;;;;;;4916001;29;20024;-72
2022/02/21 01:27:16;;;;;;;11.02;4.07;;;-5.60;99.90;;;;;;4915665;29;20498;-72
2022/02/21 01:29:42;;;;;;;17.35;3.80;;;-5.50;99.90;;;;;;4915685;29;20032;-72
2022/02/21 01:32:09;;;;;;;9.85;3.22;;;-5.50;99.90;;;;;;4915501;29;20063;-72
2022/02/21 01:34:35;;;;;;;10.48;3.58;;;-5.60;99.90;;;;;;4915631;29;20079;-72
2022/02/21 01:37:01;;;;;;;14.48;3.42;;;-5.60;99.90;;;;;;4915469;29;20043;-72
2022/02/21 01:39:27;;;;;;;17.58;3.67;;;-5.70;99.90;;;;;;4918804;29;20044;-72
2022/02/21 01:41:52;;;;;;;10.02;3.40;;;-5.70;99.90;;;;;;4919744;29;20532;-72
2022/02/21 01:44:18;;;;;;;9.35;3.35;;;-5.60;99.90;;;;;;4919485;29;20059;-72
2022/02/21 01:46:44;;;;;;;10.25;4.22;;;-5.60;99.90;;;;;;4919416;29;20040;-72
2022/02/21 01:49:13;;;;;;;10.40;3.75;;;-5.50;99.90;;;;;;4919374;29;20024;-73
2022/02/21 01:51:39;;;;;;;9.55;3.60;;;-5.50;99.90;;;;;;4919451;29;20043;-73
2022/02/21 01:54:07;;;;;;;13.80;3.70;;;-5.50;99.90;;;;;;4917932;29;20024;-73
2022/02/21 01:56:34;;;;;;;15.60;3.97;;;-5.50;99.90;;;;;;4919216;29;20492;-72
2022/02/21 01:59:00;;;;;;;16.35;3.92;;;-5.50;99.90;;;;;;4919393;29;20176;-72
2022/02/21 02:01:26;;;;;;;18.40;4.22;;;-5.40;99.90;;;;;;4919217;29;20104;-72
2022/02/21 02:03:51;;;;;;;13.60;4.50;;;-5.40;99.90;;;;;;4919425;29;20021;-72
2022/02/21 02:06:19;;;;;;;18.90;4.15;;;-5.50;99.90;;;;;;4919389;29;20024;-72
2022/02/21 02:08:45;;;;;;;8.65;3.85;;;-5.50;99.90;;;;;;4919144;29;20036;-72
2022/02/21 02:11:13;;;;;;;18.05;4.05;;;-5.70;99.90;;;;;;4919040;29;20024;-72
2022/02/21 02:13:38;;;;;;;11.35;4.03;;;-5.70;99.90;;;;;;4919059;29;20043;-73
2022/02/21 02:16:05;;;;;;;11.50;4.03;;;-5.70;99.90;;;;;;4918853;29;20032;-73
2022/02/21 02:18:30;;;;;;;16.38;4.55;;;-5.80;99.90;;;;;;4918910;29;20028;-72
2022/02/21 02:20:56;;;;;;;11.63;4.78;;;-5.80;99.90;;;;;;4919082;29;20119;-72
2022/02/21 02:23:22;;;;;;;14.00;4.85;;;-5.80;99.90;;;;;;4918942;29;20103;-72
2022/02/21 02:25:48;;;;;;;14.13;3.95;;;-5.70;99.90;;;;;;4918913;29;20031;-72
2022/02/21 02:28:14;;;;;;;12.45;4.78;;;-5.80;99.90;;;;;;4918696;29;20025;-72
2022/02/21 02:30:40;;;;;;;13.88;3.80;;;-5.80;99.90;;;;;;4918837;29;20118;-72
2022/02/21 02:33:05;;;;;;;16.40;5.47;;;-5.90;99.90;;;;;;4918555;29;20111;-73
2022/02/21 02:35:32;;;;;;;14.15;4.47;;;-6.00;99.90;;;;;;4918731;29;20039;-73
2022/02/21 02:38:04;;;;;;;17.48;4.65;;;-6.00;99.90;;;;;;4918417;29;20563;-73
2022/02/21 02:40:30;;;;;;;16.98;4.43;;;-6.00;99.90;;;;;;4918957;29;20036;-73
2022/02/21 02:42:56;;;;;;;9.80;4.30;;;-6.00;99.90;;;;;;4918484;29;20480;-73
2022/02/21 02:45:21;;;;;;;18.00;4.28;;;-6.10;99.90;;;;;;4918545;29;20028;-73
2022/02/21 02:47:47;;;;;;;9.60;3.45;;;-6.20;99.90;;;;;;4918327;29;20075;-72
2022/02/21 02:50:13;;;;;;;16.25;4.03;;;-6.30;99.90;;;;;;4918330;29;20056;-73
2022/02/21 02:52:38;;;;;;;8.57;4.28;;;-6.30;99.90;;;;;;4918375;29;20050;-73
2022/02/21 02:55:04;;;;;;;13.23;3.65;;;-6.30;99.90;;;;;;4916909;29;20032;-73
2022/02/21 02:57:30;;;;;;;12.25;3.58;;;-6.40;99.90;;;;;;4918155;29;20480;-73
2022/02/21 02:59:57;;;;;;;8.70;3.67;;;-6.50;99.90;;;;;;4916834;29;20123;-73
2022/02/21 03:02:23;;;;;;;7.95;3.30;;;-6.50;99.90;;;;;;4918231;29;20107;-73
2022/02/21 03:38:28;;;;;;;12.27;4.05;;;-6.60;99.90;;;;;;5142123;23;20139;-67
2022/02/21 03:40:54;;;;;;;12.13;3.80;;;-6.60;99.90;;;;;;4973495;28;20023;-67
2022/02/21 03:43:20;;;;;;;15.15;4.18;;;-6.60;99.90;;;;;;4974990;28;20047;-67
2022/02/21 03:45:46;;;;;;;9.20;3.72;;;-6.70;99.90;;;;;;4974872;28;20490;-68
2022/02/21 03:48:11;;;;;;;13.68;4.28;;;-6.70;99.90;;;;;;4974931;28;20163;-68
2022/02/21 03:50:37;;;;;;;17.52;3.95;;;-6.70;99.90;;;;;;4973524;28;20042;-67
2022/02/21 03:53:03;;;;;;;8.43;3.60;;;-6.70;99.90;;;;;;4974793;28;20031;-68
2022/02/21 03:55:29;;;;;;;10.05;4.22;;;-6.70;99.90;;;;;;4974695;28;20085;-68
2022/02/21 03:57:54;;;;;;;11.73;4.30;;;-6.70;99.90;;;;;;4974532;28;20410;-68
2022/02/21 04:00:21;;;;;;;12.55;4.22;;;-6.70;99.90;;;;;;4973929;28;20037;-68
2022/02/21 04:02:47;;;;;;;11.35;3.47;;;-6.60;99.90;;;;;;4974395;28;20030;-68
2022/02/21 04:05:14;;;;;;;9.50;3.90;;;-6.50;99.90;;;;;;4974418;28;20494;-68
2022/02/21 04:07:42;;;;;;;12.18;4.00;;;-6.50;99.90;;;;;;4974353;28;20030;-68
2022/02/21 04:10:13;;;;;;;13.35;4.47;;;-6.60;99.90;;;;;;4974621;28;20030;-68
2022/02/21 04:12:39;;;;;;;10.23;4.32;;;-6.60;99.90;;;;;;4974718;28;20380;-68
2022/02/21 04:15:07;;;;;;;13.52;4.75;;;-6.60;99.90;;;;;;4974335;28;20033;-68
2022/02/21 04:17:44;;;;;;;15.70;4.60;;;-6.50;99.90;;;;;;4974386;28;20065;-67
2022/02/21 04:20:12;;;;;;;16.10;4.13;;;-6.50;99.90;;;;;;4974443;28;20031;-68
2022/02/21 04:22:38;;;;;;;9.35;4.18;;;-6.50;99.90;;;;;;4974014;28;20525;-68
2022/02/21 04:25:06;;;;;;;7.82;3.58;;;-6.60;99.90;;;;;;4974027;28;20022;-67
2022/02/21 04:27:40;;;;;;;9.68;3.67;;;-6.50;99.90;;;;;;4973996;28;20027;-68
2022/02/21 04:30:06;;;;;;;12.43;3.50;;;-6.50;99.90;;;;;;4973992;28;20426;-68
2022/02/21 04:32:32;;;;;;;12.10;4.10;;;-6.60;99.90;;;;;;4974224;28;20027;-68
2022/02/21 04:34:57;;;;;;;16.40;4.38;;;-6.60;99.90;;;;;;4974316;28;20481;-67
2022/02/21 04:37:23;;;;;;;15.20;4.03;;;-6.60;99.90;;;;;;4973568;28;20053;-67
2022/02/21 04:39:49;;;;;;;10.10;4.28;;;-6.70;99.90;;;;;;4974227;28;20046;-67
2022/02/21 04:42:15;;;;;;;7.93;3.53;;;-6.80;99.90;;;;;;4974124;28;20470;-67
2022/02/21 04:44:40;;;;;;;15.38;3.70;;;-6.80;99.90;;;;;;4973958;28;20499;-66
2022/02/21 04:47:06;;;;;;;9.35;3.88;;;-6.80;99.90;;;;;;4973689;28;20023;-68
2022/02/21 04:49:32;;;;;;;13.02;4.32;;;-6.70;99.90;;;;;;4972767;28;20386;-68
2022/02/21 04:51:58;;;;;;;11.10;4.40;;;-6.70;99.90;;;;;;4973957;28;20023;-69
2022/02/21 04:54:23;;;;;;;11.18;3.80;;;-6.60;99.90;;;;;;4973466;28;20166;-69
2022/02/21 04:56:49;;;;;;;11.02;4.32;;;-6.70;99.90;;;;;;4973621;28;20039;-68
2022/02/21 04:59:15;;;;;;;15.07;4.20;;;-6.70;99.90;;;;;;4973612;28;20030;-68
2022/02/21 05:01:40;;;;;;;14.57;4.70;;;-6.60;99.90;;;;;;4973451;28;20034;-68
2022/02/21 05:04:06;;;;;;;13.07;4.00;;;-6.50;99.90;;;;;;4971925;28;20030;-69
2022/02/21 05:06:32;;;;;;;12.18;4.38;;;-6.50;99.90;;;;;;4973472;28;20390;-68
2022/02/21 05:08:58;;;;;;;13.38;4.43;;;-6.60;99.90;;;;;;4973565;28;20027;-67
2022/02/21 05:11:24;;;;;;;14.98;4.85;;;-6.60;99.90;;;;;;4973196;28;20494;-66
2022/02/21 05:13:50;;;;;;;9.40;4.55;;;-6.60;99.90;;;;;;4973154;28;20037;-66
2022/02/21 05:16:15;;;;;;;11.85;3.72;;;-6.60;99.90;;;;;;4973237;28;20054;-67
2022/02/21 05:18:41;;;;;;;11.80;3.97;;;-6.60;99.90;;;;;;4973468;28;20101;-67
2022/02/21 05:21:07;;;;;;;8.55;3.42;;;-6.60;99.90;;;;;;4972978;28;20038;-67
2022/02/21 05:23:33;;;;;;;8.93;3.53;;;-6.70;99.90;;;;;;4973426;28;20034;-67
2022/02/21 05:25:58;;;;;;;8.90;3.50;;;-6.90;99.90;;;;;;4973484;28;20386;-67
2022/02/21 05:28:24;;;;;;;11.45;3.70;;;-6.80;99.90;;;;;;4971572;28;20097;-67
2022/02/21 05:30:50;;;;;;;9.88;3.75;;;-6.90;99.90;;;;;;4973092;28;20031;-68
2022/02/21 05:33:15;;;;;;;7.43;3.58;;;-6.90;99.90;;;;;;4973124;28;20023;-71
2022/02/21 05:35:42;;;;;;;7.97;3.63;;;-6.90;99.90;;;;;;4973335;28;20050;-70
2022/02/21 05:38:08;;;;;;;15.93;3.58;;;-6.90;99.90;;;;;;4972546;28;20054;-66
2022/02/21 05:40:33;;;;;;;15.05;3.75;;;-6.90;99.90;;;;;;4972882;28;20437;-69
2022/02/21 05:42:59;;;;;;;11.23;4.38;;;-6.80;99.90;;;;;;4972707;28;20035;-69
2022/02/21 05:45:25;;;;;;;15.48;4.80;;;-6.30;99.90;;;;;;4972174;28;20034;-71
2022/02/21 05:47:50;;;;;;;11.60;4.80;;;-6.30;99.90;;;;;;4971771;28;20105;-72
2022/02/21 05:50:16;;;;;;;12.73;4.97;;;-6.40;99.90;;;;;;4970474;28;20019;-72
2022/02/21 05:52:42;;;;;;;13.88;4.88;;;-6.40;99.90;;;;;;4964324;28;20035;-70
2022/02/21 05:55:08;;;;;;;10.05;4.32;;;-6.40;99.90;;;;;;4963682;28;20474;-71
2022/02/21 05:57:34;;;;;;;13.45;4.90;;;-6.50;99.90;;;;;;4969157;28;20046;-69
2022/02/21 06:00:02;;;;;;;12.70;4.88;;;-6.60;99.90;;;;;;4958950;28;20030;-68
2022/02/21 06:02:27;;;;;;;12.65;4.47;;;-6.70;99.90;;;;;;4966339;28;20027;-69
2022/02/21 06:04:54;;;;;;;15.88;4.38;;;-6.70;99.90;;;;;;4959075;28;20031;-70
2022/02/21 06:07:20;;;;;;;13.60;4.80;;;-6.80;99.90;;;;;;4966685;28;20030;-70
2022/02/21 06:09:45;;;;;;;13.88;5.35;;;-6.70;99.90;;;;;;4972472;28;20497;-71
2022/02/21 06:12:12;;;;;;;10.70;4.50;;;-6.60;99.90;;;;;;4967098;28;20426;-70
2022/02/21 06:14:38;;;;;;;17.25;4.90;;;-6.80;99.90;;;;;;4972619;28;20042;-71
2022/02/21 06:17:04;;;;;;;13.02;4.95;;;-6.80;99.90;;;;;;4972698;28;20035;-71
2022/02/21 06:19:30;;;;;;;16.35;4.97;;;-6.80;99.90;;;;;;4972479;28;20027;-71
2022/02/21 06:21:57;;;;;;;10.90;4.95;;;-6.80;99.90;;;;;;4972674;28;20030;-71
2022/02/21 06:24:26;;;;;;;16.77;5.10;;;-6.80;99.90;;;;;;4974074;28;20106;-70
2022/02/21 06:26:51;;;;;;;13.98;4.57;;;-6.70;99.90;;;;;;4976171;28;20367;-72
2022/02/21 06:29:17;;;;;;;20.17;5.70;;;-6.50;99.90;;;;;;4975967;28;20081;-71
2022/02/21 06:31:43;;;;;;;14.07;4.80;;;-6.00;99.90;;;;;;4976203;28;20023;-71
2022/02/21 06:34:08;;;;;;;11.93;4.40;;;-6.30;99.90;;;;;;4975860;28;20026;-71
2022/02/21 06:36:35;;;;;;;14.40;5.63;;;-6.50;99.90;;;;;;4975955;28;20027;-71
2022/02/21 06:39:01;;;;;;;14.60;5.40;;;-6.70;99.90;;;;;;4976243;28;20433;-71
2022/02/21 06:41:26;;;;;;;23.85;5.47;;;-6.80;99.90;;;;;;4975864;28;20023;-74
2022/02/21 06:43:52;;;;;;;16.58;5.65;;;-6.80;99.90;;;;;;4975912;28;20033;-71
2022/02/21 06:46:18;;;;;;;19.30;6.60;;;-6.80;99.90;;;;;;4975819;28;20382;-71
2022/02/21 06:48:44;;;;;;;15.18;7.45;;;-6.70;99.90;;;;;;4976112;28;20398;-70
2022/02/21 06:51:10;;;;;;;19.70;6.30;;;-6.70;99.90;;;;;;4975687;28;20029;-71
2022/02/21 06:53:35;;;;;;;20.38;6.18;;;-6.70;99.90;;;;;;4975777;28;20141;-71
2022/02/21 06:56:01;;;;;;;14.00;6.05;;;-6.70;99.90;;;;;;4975491;28;20019;-71
2022/02/21 06:58:27;;;;;;;22.02;6.57;;;-6.70;99.90;;;;;;4975499;28;20035;-71
2022/02/21 07:00:53;;;;;;;18.38;6.38;;;-6.70;99.90;;;;;;4975926;28;20023;-71
2022/02/21 07:03:19;;;;;;;14.80;5.57;;;-6.60;99.90;;;;;;4975399;28;20030;-70
2022/02/21 07:05:44;;;;;;;18.23;6.07;;;-5.20;99.90;;;;;;4958148;28;20039;-70
2022/02/21 07:08:10;;;;;;;15.18;6.30;;;-4.10;99.90;;;;;;4956171;29;20055;-69
2022/02/21 07:10:37;;;;;;;13.90;5.85;;;-4.50;99.90;;;;;;4956449;28;20110;-69
2022/02/21 07:13:03;;;;;;;15.45;5.43;;;-5.10;99.90;;;;;;4956040;28;20123;-70
2022/02/21 07:15:29;;;;;;;14.07;5.18;;;-5.60;99.90;;;;;;4956083;28;20113;-70
2022/02/21 07:17:54;;;;;;;16.20;5.32;;;-5.90;99.90;;;;;;4956086;28;20039;-70
2022/02/21 07:20:20;;;;;;;18.85;6.32;;;-6.10;99.90;;;;;;4955835;28;20103;-69
2022/02/21 07:22:47;;;;;;;16.70;6.00;;;-6.20;99.90;;;;;;4956038;28;20051;-70
2022/02/21 07:25:15;;;;;;;16.38;5.95;;;-6.20;99.90;;;;;;4954693;28;20050;-73
2022/02/21 07:27:50;;;;;;;11.68;5.03;;;-6.30;99.90;;;;;;4956607;28;20030;-72
2022/02/21 07:30:17;;;;;;;12.10;5.15;;;-6.50;99.90;;;;;;4960585;28;20027;-69
2022/02/21 07:32:43;;;;;;;21.38;6.43;;;-6.60;99.90;;;;;;4955775;28;20110;-70
2022/02/21 07:35:10;;;;;;;35.20;6.65;;;-6.60;99.90;;;;;;4955144;28;20487;-69
2022/02/21 07:37:39;;;;;;;11.73;4.50;;;-6.50;99.90;;;;;;4955020;28;20130;-69
2022/02/21 07:40:06;;;;;;;23.25;5.38;;;-6.50;99.90;;;;;;4965171;28;20027;-70
2022/02/21 07:42:32;;;;;;;6.45;3.70;;;-6.60;99.90;;;;;;4973623;28;20447;-70
2022/02/21 07:44:57;;;;;;;8.48;4.25;;;-6.60;99.90;;;;;;4967179;28;20117;-70
2022/02/21 07:47:23;;;;;;;12.20;4.78;;;-6.70;99.90;;;;;;4954093;28;20055;-70
2022/02/21 07:49:49;;;;;;;12.35;4.72;;;-6.80;99.90;;;;;;4950805;28;20023;-79
2022/02/21 07:52:15;;;;;;;8.45;4.57;;;-6.80;99.90;;;;;;4938143;29;20440;-74
2022/02/21 07:54:40;;;;;;;11.88;5.18;;;-6.90;99.90;;;;;;4949485;28;20020;-78
2022/02/21 07:57:06;;;;;;;11.02;5.72;;;-6.80;99.90;;;;;;4943743;29;20031;-79
2022/02/21 07:59:33;;;;;;;18.52;5.57;;;-6.70;99.90;;;;;;4969179;28;20394;-82
2022/02/21 08:02:00;;;;;;;12.32;4.88;;;-6.60;99.90;;;;;;4941828;28;20055;-79
2022/02/21 08:04:26;;;;;;;9.07;4.85;;;-6.50;99.90;;;;;;4951006;28;20044;-80
2022/02/21 08:06:51;;;;;;;12.18;4.53;;;-6.60;99.90;;;;;;4942176;29;20047;-80
2022/02/21 08:09:20;;;;;;;15.75;4.97;;;-6.60;99.90;;;;;;4944183;29;20047;-76
2022/02/21 08:11:46;;;;;;;12.13;5.00;;;-6.70;99.90;;;;;;4949404;29;20055;-72
2022/02/21 08:14:12;;;;;;;16.98;6.38;;;-6.60;99.90;;;;;;4936899;28;20118;-73
2022/02/21 08:16:38;;;;;;;12.75;5.05;;;-6.50;99.90;;;;;;4955100;28;20554;-71
2022/02/21 08:19:04;;;;;;;10.50;4.78;;;-6.50;99.90;;;;;;4965041;28;20043;-71
2022/02/21 08:21:30;;;;;;;15.05;4.75;;;-6.40;99.90;;;;;;4963562;28;20086;-71
2022/02/21 08:23:55;;;;;;;7.82;4.07;;;-6.40;99.90;;;;;;4938844;29;20031;-69
2022/02/21 08:26:23;;;;;;;10.50;4.20;;;-6.40;99.90;;;;;;4949506;29;20040;-69
2022/02/21 08:28:49;;;;;;;12.45;4.63;;;-6.50;99.90;;;;;;4956325;28;20035;-70
2022/02/21 08:31:15;;;;;;;13.05;4.50;;;-6.50;99.90;;;;;;4963699;28;20054;-75
2022/02/21 08:33:41;;;;;;;12.07;4.25;;;-6.60;99.90;;;;;;4940738;28;20478;-79
2022/02/21 08:36:07;;;;;;;9.52;4.22;;;-6.70;99.90;;;;;;4950739;29;20114;-80
2022/02/21 08:38:32;;;;;;;9.48;3.67;;;-6.60;99.90;;;;;;4938223;29;20043;-78
2022/02/21 08:40:58;;;;;;;6.95;3.30;;;-6.60;99.90;;;;;;4946510;28;20023;-78
2022/02/21 08:43:28;;;;;;;6.10;3.97;;;-6.70;99.90;;;;;;4933837;29;20395;-74
2022/02/21 08:45:55;;;;;;;4.57;2.57;;;-6.80;99.90;;;;;;4962827;28;20475;-74
2022/02/21 08:48:21;;;;;;;9.25;3.83;;;-5.40;99.90;;;;;;4951029;28;20102;-73
2022/02/21 08:50:46;;;;;;;13.15;4.25;;;-3.50;99.90;;;;;;4934744;29;20123;-74
2022/02/21 08:53:12;;;;;;;10.15;3.97;;;-3.50;99.90;;;;;;4944297;29;20031;-73
2022/02/21 08:55:38;;;;;;;8.20;4.10;;;-4.40;99.90;;;;;;4952621;29;20043;-74
2022/02/21 08:58:04;;;;;;;16.63;4.43;;;-4.90;99.90;;;;;;4954373;29;20097;-73
2022/02/21 09:00:30;;;;;;;8.88;4.32;;;-5.40;99.90;;;;;;4968837;28;20387;-73
2022/02/21 09:02:57;;;;;;;9.15;4.03;;;-5.70;99.90;;;;;;4954144;29;20038;-73
2022/02/21 09:05:25;;;;;;;9.30;4.20;;;-6.00;99.90;;;;;;4968618;28;20026;-73
2022/02/21 09:07:51;;;;;;;8.70;4.25;;;-6.10;99.90;;;;;;4953974;28;20038;-73
2022/02/21 09:10:17;;;;;;;11.05;4.35;;;-6.30;99.90;;;;;;4954193;28;20031;-73
2022/02/21 09:12:43;;;;;;;9.23;4.13;;;-6.30;99.90;;;;;;4954017;29;20027;-73
2022/02/21 09:15:08;;;;;;;8.90;4.13;;;-6.40;99.90;;;;;;4954045;28;20023;-73
2022/02/21 09:17:34;;;;;;;11.30;4.45;;;-6.40;99.90;;;;;;4953726;29;20479;-73
2022/02/21 09:20:00;;;;;;;10.07;4.15;;;-6.40;99.90;;;;;;4953930;28;20030;-73
2022/02/21 09:22:26;;;;;;;8.73;3.88;;;-6.40;99.90;;;;;;4953941;28;20024;-73
2022/02/21 09:24:52;;;;;;;9.82;4.03;;;-6.40;99.90;;;;;;4954153;28;20517;-73
2022/02/21 09:27:18;;;;;;;9.98;3.60;;;-6.60;99.90;;;;;;4953711;28;20118;-73
2022/02/21 09:29:45;;;;;;;8.75;3.92;;;-6.70;99.90;;;;;;4953706;28;20023;-73
2022/02/21 09:32:10;;;;;;;6.57;3.95;;;-6.70;99.90;;;;;;4954194;28;20042;-73
2022/02/21 09:34:36;;;;;;;8.73;3.80;;;-6.70;99.90;;;;;;4953697;29;20418;-73
2022/02/21 09:37:02;;;;;;;9.55;3.97;;;-6.60;99.90;;;;;;4953506;28;20051;-73
2022/02/21 09:39:28;;;;;;;3.83;2.65;;;-6.60;99.90;;;;;;4953484;28;20038;-74
2022/02/21 09:41:55;;;;;;;13.93;3.95;;;-5.90;99.90;;;;;;4953864;29;20031;-73
2022/02/21 09:44:21;;;;;;;11.23;4.25;;;-1.50;99.90;;;;;;4968513;28;20069;-74
2022/02/21 09:46:49;;;;;;;9.05;3.75;;;-2.40;99.90;;;;;;4973044;28;20030;-74
2022/02/21 09:49:19;;;;;;;6.95;3.80;;;-3.50;99.90;;;;;;4953143;28;20034;-74
2022/02/21 09:51:45;;;;;;;5.72;3.25;;;-4.40;99.90;;;;;;4953846;29;20034;-75
2022/02/21 09:54:13;;;;;;;11.13;3.60;;;-4.80;99.90;;;;;;4953697;28;20074;-72
2022/02/21 09:56:42;;;;;;;6.45;3.60;;;-5.30;99.90;;;;;;4953509;28;20035;-73
2022/02/21 09:59:09;;;;;;;10.77;3.92;;;-5.80;99.90;;;;;;4954632;28;20027;-71
2022/02/21 10:01:38;;;;;;;12.43;3.35;;;-6.00;99.90;;;;;;4959712;28;20445;-71
2022/02/21 10:04:04;;;;;;;6.00;3.25;;;-6.30;99.90;;;;;;4958316;28;20091;-72
2022/02/21 10:06:32;;;;;;;12.38;4.55;;;-6.30;99.90;;;;;;4971668;28;20027;-71
2022/02/21 10:09:00;;;;;;;9.32;3.90;;;-6.30;99.90;;;;;;4974492;28;20086;-72
2022/02/21 10:11:32;;;;;;;15.60;3.60;;;-6.20;99.90;;;;;;4974572;28;20011;-71
2022/02/21 10:14:07;;;;;;;7.53;3.72;;;-6.20;99.90;;;;;;4975228;28;20709;-72
2022/02/21 10:17:01;;;;;;;12.80;3.72;;;-6.20;99.90;;;;;;4976464;28;20455;-76
2022/02/21 10:19:28;;;;;;;6.55;3.50;;;-6.20;99.90;;;;;;4976396;28;20422;-76
2022/02/21 10:22:02;;;;;;;5.85;3.28;;;-6.10;99.90;;;;;;4976670;28;20066;-76
2022/02/21 10:24:43;;;;;;;10.90;2.78;;;-6.10;99.90;;;;;;4976222;28;20517;-76
2022/02/21 10:27:18;;;;;;;6.85;3.20;;;-6.10;99.90;;;;;;4976665;28;20026;-77
2022/02/21 10:29:51;;;;;;;8.43;3.03;;;-6.10;99.90;;;;;;4976249;28;20027;-75
2022/02/21 10:32:20;;;;;;;11.65;4.10;;;-5.50;99.90;;;;;;4976179;28;20030;-77
2022/02/21 10:34:46;;;;;;;8.60;3.33;;;-4.90;99.90;;;;;;4975730;28;20038;-76
2022/02/21 10:37:24;;;;;;;6.82;3.17;;;-5.20;99.90;;;;;;4960436;28;20106;-76
2022/02/21 10:40:07;;;;;;;8.95;3.47;;;-5.60;99.90;;;;;;4956599;28;20023;-77
2022/02/21 10:42:32;;;;;;;9.07;3.60;;;-5.70;99.90;;;;;;4961332;28;20044;-78
2022/02/21 10:45:18;;;;;;;6.18;3.28;;;-5.80;99.90;;;;;;4969804;28;20027;-76
2022/02/21 10:48:06;;;;;;;18.42;3.95;;;-5.80;99.90;;;;;;4957604;28;20426;-72
2022/02/21 10:50:52;;;;;;;7.28;3.40;;;-5.70;99.90;;;;;;4972187;28;20031;-72
2022/02/21 10:53:23;;;;;;;10.10;3.50;;;-5.70;99.90;;;;;;4975067;28;20027;-72
2022/02/21 10:55:53;;;;;;;7.80;2.90;;;-5.70;99.90;;;;;;4975763;28;20442;-77
2022/02/21 10:58:23;;;;;;;8.63;4.50;;;-5.80;99.90;;;;;;4975510;28;20034;-77
2022/02/21 11:00:50;;;;;;;5.80;3.10;;;-5.90;99.90;;;;;;4974935;28;20041;-79
2022/02/21 11:03:20;;;;;;;4.88;2.95;;;-5.90;99.90;;;;;;4974684;28;20034;-80
2022/02/21 11:05:48;;;;;;;8.13;3.45;;;-5.90;99.90;;;;;;4974715;28;20497;-79
2022/02/21 11:08:16;;;;;;;8.75;2.80;;;-6.00;99.90;;;;;;4970439;28;20055;-77
2022/02/21 11:10:44;;;;;;;11.80;3.45;;;-6.00;99.90;;;;;;4963775;28;20509;-78
2022/02/21 11:13:13;;;;;;;11.90;3.85;;;-6.00;99.90;;;;;;4969479;28;20041;-78
2022/02/21 11:15:39;;;;;;;7.50;3.10;;;-5.90;99.90;;;;;;4974569;28;20026;-77
2022/02/21 11:18:09;;;;;;;8.98;2.60;;;-6.00;99.90;;;;;;4974990;28;20038;-77
2022/02/21 11:20:35;;;;;;;6.95;3.30;;;-6.00;99.90;;;;;;4973805;28;20023;-77
2022/02/21 11:23:01;;;;;;;6.40;3.05;;;-6.10;99.90;;;;;;4975406;28;20077;-77
2022/02/21 11:25:38;;;;;;;6.93;3.13;;;-6.10;99.90;;;;;;4974836;28;20363;-77
2022/02/21 11:28:14;;;;;;;4.70;2.67;;;-6.10;99.90;;;;;;4975458;28;20034;-76
2022/02/21 11:30:43;;;;;;;9.07;3.33;;;-6.10;99.90;;;;;;4975219;28;20046;-76
2022/02/21 11:33:10;;;;;;;8.55;3.13;;;-6.10;99.90;;;;;;4975170;28;20026;-76
2022/02/21 11:35:39;;;;;;;4.03;2.85;;;-6.10;99.90;;;;;;4959135;28;20055;-75
2022/02/21 11:38:17;;;;;;;4.78;2.20;;;-6.10;99.90;;;;;;4973810;28;20053;-76
2022/02/21 11:41:06;;;;;;;6.47;2.85;;;-6.20;99.90;;;;;;4959162;28;20039;-77
2022/02/21 11:43:37;;;;;;;5.82;2.05;;;-6.30;99.90;;;;;;4964749;28;20319;-76
2022/02/21 11:46:30;;;;;;;7.78;3.05;;;-6.20;99.90;;;;;;4965526;28;20023;-77
2022/02/21 11:49:06;;;;;;;11.40;2.78;;;-6.40;99.90;;;;;;4958214;28;20109;-76
2022/02/21 11:51:40;;;;;;;11.48;3.38;;;-6.30;99.90;;;;;;4962227;28;20026;-77
2022/02/21 11:54:11;;;;;;;5.13;3.03;;;-6.20;99.90;;;;;;4966837;28;20026;-76
2022/02/21 11:56:49;;;;;;;7.50;3.20;;;-6.20;99.90;;;;;;4973862;28;20031;-75
2022/02/21 11:59:28;;;;;;;6.78;2.88;;;-6.10;99.90;;;;;;4971021;28;20027;-76
2022/02/21 12:02:15;;;;;;;5.32;3.00;;;-6.10;99.90;;;;;;4966438;28;20094;-75
2022/02/21 12:04:59;;;;;;;4.63;2.78;;;-6.20;99.90;;;;;;4969300;28;20110;-72
2022/02/21 12:07:25;;;;;;;5.50;2.92;;;-6.20;99.90;;;;;;4959913;28;20030;-71
2022/02/21 12:10:09;;;;;;;4.50;3.08;;;-6.30;99.90;;;;;;4954325;28;20406;-72
2022/02/21 12:12:59;;;;;;;11.38;2.90;;;-6.30;99.90;;;;;;4954831;29;20046;-71
2022/02/21 12:15:35;;;;;;;7.35;2.95;;;-6.20;99.90;;;;;;4954928;28;20505;-72
2022/02/21 12:18:07;;;;;;;6.40;3.25;;;-6.20;99.90;;;;;;4961696;28;20077;-73
2022/02/21 12:20:40;;;;;;;5.55;3.33;;;-6.20;99.90;;;;;;4972573;28;20030;-73
2022/02/21 12:23:14;;;;;;;6.00;2.95;;;-6.20;99.90;;;;;;4972258;28;20027;-73
2022/02/21 12:25:41;;;;;;;11.80;3.30;;;-6.20;99.90;;;;;;4973761;28;20026;-69
2022/02/21 12:28:32;;;;;;;10.85;3.30;;;-6.30;99.90;;;;;;4973677;28;20121;-70
2022/02/21 12:30:58;;;;;;;10.90;3.58;;;-6.30;99.90;;;;;;4973758;28;20031;-69
2022/02/21 12:33:26;;;;;;;6.78;2.88;;;-6.20;99.90;;;;;;4972322;28;20055;-71
2022/02/21 12:36:01;;;;;;;8.20;4.25;;;-3.60;99.90;;;;;;4974162;28;20026;-71
2022/02/21 12:38:29;;;;;;;7.28;3.20;;;-2.70;99.90;;;;;;4973571;28;20394;-72
2022/02/21 12:41:08;;;;;;;9.65;3.28;;;-3.60;99.90;;;;;;4973559;28;20105;-69
2022/02/21 12:43:55;;;;;;;8.18;3.40;;;-3.50;99.90;;;;;;4973824;28;20054;-69
2022/02/21 12:46:37;;;;;;;4.32;2.75;;;-4.30;99.90;;;;;;4973846;28;20019;-69
2022/02/21 12:49:05;;;;;;;13.98;3.40;;;-4.80;99.90;;;;;;4973735;28;20026;-71
2022/02/21 12:51:36;;;;;;;7.28;3.70;;;-5.10;99.90;;;;;;4963642;28;20027;-71
2022/02/21 12:54:08;;;;;;;7.10;3.03;;;-4.40;99.90;;;;;;4935403;28;20118;-71
2022/02/21 12:56:54;;;;;;;3.88;2.08;;;-4.70;99.90;;;;;;4935003;29;20128;-70
2022/02/21 12:59:22;;;;;;;9.73;3.22;;;-4.80;99.90;;;;;;4934932;29;20032;-70
2022/02/21 13:01:49;;;;;;;6.88;3.17;;;-4.50;99.90;;;;;;4935372;29;20054;-69
2022/02/21 13:04:16;;;;;;;6.57;3.13;;;-4.20;99.90;;;;;;4935152;29;20055;-79
2022/02/21 13:06:42;;;;;;;5.72;2.92;;;-4.10;99.90;;;;;;4935084;29;20036;-78
2022/02/21 13:09:08;;;;;;;5.32;3.10;;;-4.70;99.90;;;;;;4935387;29;20024;-78
2022/02/21 13:11:39;;;;;;;9.85;3.38;;;-5.00;99.90;;;;;;4935274;29;20054;-79
2022/02/21 13:14:07;;;;;;;6.97;3.22;;;-5.20;99.90;;;;;;4935084;29;20034;-78
2022/02/21 13:16:53;;;;;;;5.20;3.20;;;-5.20;99.90;;;;;;4945931;29;20035;-79
2022/02/21 13:19:32;;;;;;;2.92;2.58;;;-4.90;99.90;;;;;;4951155;28;20036;-80